sensor_id;sensor_type;location;lat;lon;timestamp;P1;durP1;ratioP1;P2;durP2;ratioP2
3006;SDS011;1513;47.650;10.720;2023-07-13T00:01:30;3.93;;;3.10;;
3006;SDS011;1513;47.650;10.720;2023-07-13T00:03:57;4.10;;;2.33;;
3006;SDS011;1513;47.650;10.720;2023-07-13T00:06:24;3.20;;;2.20;;
3006;SDS011;1513;47.650;10.720;2023-07-13T00:08:50;3.23;;;2.07;;
3006;SDS011;1513;47.650;10.720;2023-07-13T00:11:16;3.57;;;2.77;;
3006;SDS011;1513;47.650;10.720;2023-07-13T00:13:43;2.47;;;1.80;;
3006;SDS011;1513;47.650;10.720;2023-07-13T00:16:10;1.90;;;1.70;;
3006;SDS011;1513;47.650;10.720;2023-07-13T00:18:36;1.77;;;1.67;;
3006;SDS011;1513;47.650;10.720;2023-07-13T00:21:03;2.20;;;1.90;;
3006;SDS011;1513;47.650;10.720;2023-07-13T00:23:30;2.13;;;1.93;;
3006;SDS011;1513;47.650;10.720;2023-07-13T00:25:59;2.00;;;1.87;;
3006;SDS011;1513;47.650;10.720;2023-07-13T00:28:27;2.20;;;1.90;;
3006;SDS011;1513;47.650;10.720;2023-07-13T00:30:53;1.80;;;1.70;;
3006;SDS011;1513;47.650;10.720;2023-07-13T00:33:20;3.80;;;2.20;;
3006;SDS011;1513;47.650;10.720;2023-07-13T00:35:47;2.30;;;2.10;;
3006;SDS011;1513;47.650;10.720;2023-07-13T00:38:13;2.00;;;1.90;;
3006;SDS011;1513;47.650;10.720;2023-07-13T00:40:40;2.80;;;2.10;;
3006;SDS011;1513;47.650;10.720;2023-07-13T00:43:13;3.43;;;2.13;;
3006;SDS011;1513;47.650;10.720;2023-07-13T00:48:11;2.80;;;1.90;;
3006;SDS011;1513;47.650;10.720;2023-07-13T00:50:39;2.20;;;2.00;;
3006;SDS011;1513;47.650;10.720;2023-07-13T00:53:06;1.90;;;1.80;;
3006;SDS011;1513;47.650;10.720;2023-07-13T00:55:34;5.30;;;2.30;;
3006;SDS011;1513;47.650;10.720;2023-07-13T00:58:00;2.93;;;2.73;;
3006;SDS011;1513;47.650;10.720;2023-07-13T01:00:27;5.40;;;2.63;;
3006;SDS011;1513;47.650;10.720;2023-07-13T01:02:56;2.80;;;2.10;;
3006;SDS011;1513;47.650;10.720;2023-07-13T01:05:25;2.07;;;1.87;;
3006;SDS011;1513;47.650;10.720;2023-07-13T01:07:51;2.80;;;1.83;;
3006;SDS011;1513;47.650;10.720;2023-07-13T01:10:21;1.97;;;1.87;;
3006;SDS011;1513;47.650;10.720;2023-07-13T01:12:48;2.23;;;2.00;;
3006;SDS011;1513;47.650;10.720;2023-07-13T01:18:07;1.97;;;1.73;;
3006;SDS011;1513;47.650;10.720;2023-07-13T01:20:37;3.00;;;2.00;;
3006;SDS011;1513;47.650;10.720;2023-07-13T01:23:05;1.93;;;1.70;;
3006;SDS011;1513;47.650;10.720;2023-07-13T01:25:33;2.10;;;1.90;;
3006;SDS011;1513;47.650;10.720;2023-07-13T01:28:06;3.17;;;2.10;;
3006;SDS011;1513;47.650;10.720;2023-07-13T01:30:34;2.00;;;1.90;;
3006;SDS011;1513;47.650;10.720;2023-07-13T01:33:03;1.97;;;1.83;;
3006;SDS011;1513;47.650;10.720;2023-07-13T01:35:29;3.50;;;1.93;;
3006;SDS011;1513;47.650;10.720;2023-07-13T01:37:56;2.33;;;1.93;;
3006;SDS011;1513;47.650;10.720;2023-07-13T01:40:22;2.27;;;2.10;;
3006;SDS011;1513;47.650;10.720;2023-07-13T01:42:49;2.40;;;2.20;;
3006;SDS011;1513;47.650;10.720;2023-07-13T01:45:18;2.50;;;2.00;;
3006;SDS011;1513;47.650;10.720;2023-07-13T01:47:44;3.20;;;2.00;;
3006;SDS011;1513;47.650;10.720;2023-07-13T01:50:11;6.63;;;2.30;;
3006;SDS011;1513;47.650;10.720;2023-07-13T01:52:38;2.00;;;1.90;;
3006;SDS011;1513;47.650;10.720;2023-07-13T01:55:04;2.20;;;2.00;;
3006;SDS011;1513;47.650;10.720;2023-07-13T01:57:32;5.90;;;2.13;;
3006;SDS011;1513;47.650;10.720;2023-07-13T01:59:59;2.60;;;1.93;;
3006;SDS011;1513;47.650;10.720;2023-07-13T02:02:40;3.30;;;2.30;;
3006;SDS011;1513;47.650;10.720;2023-07-13T02:05:09;4.77;;;2.27;;
3006;SDS011;1513;47.650;10.720;2023-07-13T02:07:36;4.03;;;2.50;;
3006;SDS011;1513;47.650;10.720;2023-07-13T02:10:03;3.30;;;3.00;;
3006;SDS011;1513;47.650;10.720;2023-07-13T02:12:30;3.97;;;3.10;;
3006;SDS011;1513;47.650;10.720;2023-07-13T02:14:56;5.53;;;3.10;;
3006;SDS011;1513;47.650;10.720;2023-07-13T02:17:22;3.80;;;2.57;;
3006;SDS011;1513;47.650;10.720;2023-07-13T02:19:49;3.10;;;2.30;;
3006;SDS011;1513;47.650;10.720;2023-07-13T02:22:15;4.67;;;2.83;;
3006;SDS011;1513;47.650;10.720;2023-07-13T02:24:42;3.20;;;2.73;;
3006;SDS011;1513;47.650;10.720;2023-07-13T02:27:08;3.43;;;3.07;;
3006;SDS011;1513;47.650;10.720;2023-07-13T02:29:35;3.40;;;2.70;;
3006;SDS011;1513;47.650;10.720;2023-07-13T02:32:01;3.60;;;2.60;;
3006;SDS011;1513;47.650;10.720;2023-07-13T02:34:28;7.63;;;2.97;;
3006;SDS011;1513;47.650;10.720;2023-07-13T02:36:55;3.70;;;2.83;;
3006;SDS011;1513;47.650;10.720;2023-07-13T02:39:21;7.13;;;3.53;;
3006;SDS011;1513;47.650;10.720;2023-07-13T02:41:47;3.90;;;3.00;;
3006;SDS011;1513;47.650;10.720;2023-07-13T02:44:14;3.40;;;3.10;;
3006;SDS011;1513;47.650;10.720;2023-07-13T02:46:40;4.53;;;3.40;;
3006;SDS011;1513;47.650;10.720;2023-07-13T02:49:07;3.63;;;2.90;;
3006;SDS011;1513;47.650;10.720;2023-07-13T02:51:33;4.00;;;3.17;;
3006;SDS011;1513;47.650;10.720;2023-07-13T02:54:01;3.70;;;3.27;;
3006;SDS011;1513;47.650;10.720;2023-07-13T02:56:29;6.10;;;3.33;;
3006;SDS011;1513;47.650;10.720;2023-07-13T02:58:57;4.27;;;3.10;;
3006;SDS011;1513;47.650;10.720;2023-07-13T03:01:23;3.80;;;3.20;;
3006;SDS011;1513;47.650;10.720;2023-07-13T03:03:50;6.53;;;3.60;;
3006;SDS011;1513;47.650;10.720;2023-07-13T03:06:18;4.10;;;3.10;;
3006;SDS011;1513;47.650;10.720;2023-07-13T03:08:50;5.03;;;3.23;;
3006;SDS011;1513;47.650;10.720;2023-07-13T03:11:18;3.40;;;3.10;;
3006;SDS011;1513;47.650;10.720;2023-07-13T03:13:49;3.57;;;3.27;;
3006;SDS011;1513;47.650;10.720;2023-07-13T03:16:15;5.60;;;3.30;;
3006;SDS011;1513;47.650;10.720;2023-07-13T03:18:45;3.97;;;2.80;;
3006;SDS011;1513;47.650;10.720;2023-07-13T03:21:12;4.60;;;3.07;;
3006;SDS011;1513;47.650;10.720;2023-07-13T03:23:39;4.03;;;3.10;;
3006;SDS011;1513;47.650;10.720;2023-07-13T03:26:10;11.03;;;3.50;;
3006;SDS011;1513;47.650;10.720;2023-07-13T03:28:40;3.20;;;2.80;;
3006;SDS011;1513;47.650;10.720;2023-07-13T03:31:11;4.93;;;3.13;;
3006;SDS011;1513;47.650;10.720;2023-07-13T03:33:40;5.20;;;3.37;;
3006;SDS011;1513;47.650;10.720;2023-07-13T03:36:07;3.97;;;2.70;;
3006;SDS011;1513;47.650;10.720;2023-07-13T03:38:36;3.60;;;3.10;;
3006;SDS011;1513;47.650;10.720;2023-07-13T03:41:02;6.93;;;3.47;;
3006;SDS011;1513;47.650;10.720;2023-07-13T03:43:29;4.50;;;3.30;;
3006;SDS011;1513;47.650;10.720;2023-07-13T03:45:55;4.60;;;3.60;;
3006;SDS011;1513;47.650;10.720;2023-07-13T03:48:22;4.20;;;3.13;;
3006;SDS011;1513;47.650;10.720;2023-07-13T03:50:49;3.57;;;3.20;;
3006;SDS011;1513;47.650;10.720;2023-07-13T03:53:15;3.77;;;3.37;;
3006;SDS011;1513;47.650;10.720;2023-07-13T03:55:42;5.13;;;3.60;;
3006;SDS011;1513;47.650;10.720;2023-07-13T04:01:06;4.10;;;3.50;;
3006;SDS011;1513;47.650;10.720;2023-07-13T04:03:34;4.27;;;3.87;;
3006;SDS011;1513;47.650;10.720;2023-07-13T04:06:00;5.57;;;3.90;;
3006;SDS011;1513;47.650;10.720;2023-07-13T04:08:30;4.80;;;3.33;;
3006;SDS011;1513;47.650;10.720;2023-07-13T04:10:58;4.70;;;3.60;;
3006;SDS011;1513;47.650;10.720;2023-07-13T04:13:25;6.37;;;3.40;;
3006;SDS011;1513;47.650;10.720;2023-07-13T04:15:52;4.37;;;3.40;;
3006;SDS011;1513;47.650;10.720;2023-07-13T04:18:19;10.70;;;3.70;;
3006;SDS011;1513;47.650;10.720;2023-07-13T04:20:46;5.43;;;3.80;;
3006;SDS011;1513;47.650;10.720;2023-07-13T04:23:12;2.10;;;2.00;;
3006;SDS011;1513;47.650;10.720;2023-07-13T04:25:39;4.40;;;2.93;;
3006;SDS011;1513;47.650;10.720;2023-07-13T04:28:08;7.20;;;3.60;;
3006;SDS011;1513;47.650;10.720;2023-07-13T04:30:34;4.13;;;3.13;;
3006;SDS011;1513;47.650;10.720;2023-07-13T04:33:01;4.10;;;3.47;;
3006;SDS011;1513;47.650;10.720;2023-07-13T04:35:27;5.77;;;3.40;;
3006;SDS011;1513;47.650;10.720;2023-07-13T04:37:54;4.13;;;3.13;;
3006;SDS011;1513;47.650;10.720;2023-07-13T04:40:20;3.60;;;3.13;;
3006;SDS011;1513;47.650;10.720;2023-07-13T04:42:46;4.33;;;2.97;;
3006;SDS011;1513;47.650;10.720;2023-07-13T04:45:13;4.43;;;3.07;;
3006;SDS011;1513;47.650;10.720;2023-07-13T04:47:40;4.00;;;3.40;;
3006;SDS011;1513;47.650;10.720;2023-07-13T04:50:07;5.13;;;3.70;;
3006;SDS011;1513;47.650;10.720;2023-07-13T04:52:36;4.27;;;3.20;;
3006;SDS011;1513;47.650;10.720;2023-07-13T04:55:02;4.87;;;3.43;;
3006;SDS011;1513;47.650;10.720;2023-07-13T04:57:29;5.33;;;3.47;;
3006;SDS011;1513;47.650;10.720;2023-07-13T04:59:56;4.60;;;3.30;;
3006;SDS011;1513;47.650;10.720;2023-07-13T05:02:26;3.40;;;3.10;;
3006;SDS011;1513;47.650;10.720;2023-07-13T05:04:53;4.20;;;3.80;;
3006;SDS011;1513;47.650;10.720;2023-07-13T05:07:21;4.27;;;3.20;;
3006;SDS011;1513;47.650;10.720;2023-07-13T05:09:47;4.37;;;3.70;;
3006;SDS011;1513;47.650;10.720;2023-07-13T05:12:18;6.13;;;4.40;;
3006;SDS011;1513;47.650;10.720;2023-07-13T05:14:44;6.40;;;4.40;;
3006;SDS011;1513;47.650;10.720;2023-07-13T05:17:11;6.43;;;4.23;;
3006;SDS011;1513;47.650;10.720;2023-07-13T05:19:37;5.47;;;4.70;;
3006;SDS011;1513;47.650;10.720;2023-07-13T05:22:04;6.60;;;5.50;;
3006;SDS011;1513;47.650;10.720;2023-07-13T05:24:30;6.40;;;4.63;;
3006;SDS011;1513;47.650;10.720;2023-07-13T05:26:57;5.03;;;4.03;;
3006;SDS011;1513;47.650;10.720;2023-07-13T05:29:23;5.50;;;4.07;;
3006;SDS011;1513;47.650;10.720;2023-07-13T05:31:50;6.30;;;4.70;;
3006;SDS011;1513;47.650;10.720;2023-07-13T05:34:16;4.73;;;4.30;;
3006;SDS011;1513;47.650;10.720;2023-07-13T05:36:42;6.80;;;3.90;;
3006;SDS011;1513;47.650;10.720;2023-07-13T05:39:09;6.47;;;4.83;;
3006;SDS011;1513;47.650;10.720;2023-07-13T05:41:36;6.90;;;4.90;;
3006;SDS011;1513;47.650;10.720;2023-07-13T05:44:03;6.07;;;4.90;;
3006;SDS011;1513;47.650;10.720;2023-07-13T05:46:29;8.33;;;5.10;;
3006;SDS011;1513;47.650;10.720;2023-07-13T05:48:56;7.10;;;5.37;;
3006;SDS011;1513;47.650;10.720;2023-07-13T05:51:22;7.47;;;5.33;;
3006;SDS011;1513;47.650;10.720;2023-07-13T05:53:49;7.37;;;4.20;;
3006;SDS011;1513;47.650;10.720;2023-07-13T05:56:15;6.30;;;4.73;;
3006;SDS011;1513;47.650;10.720;2023-07-13T05:58:41;7.50;;;4.30;;
3006;SDS011;1513;47.650;10.720;2023-07-13T06:01:12;6.40;;;4.43;;
3006;SDS011;1513;47.650;10.720;2023-07-13T06:03:39;5.60;;;4.17;;
3006;SDS011;1513;47.650;10.720;2023-07-13T06:06:06;7.57;;;3.60;;
3006;SDS011;1513;47.650;10.720;2023-07-13T06:08:34;5.40;;;3.20;;
3006;SDS011;1513;47.650;10.720;2023-07-13T06:11:04;5.37;;;3.47;;
3006;SDS011;1513;47.650;10.720;2023-07-13T06:13:47;5.07;;;4.20;;
3006;SDS011;1513;47.650;10.720;2023-07-13T06:16:14;4.40;;;3.80;;
3006;SDS011;1513;47.650;10.720;2023-07-13T06:18:41;4.90;;;4.40;;
3006;SDS011;1513;47.650;10.720;2023-07-13T06:21:15;7.37;;;4.50;;
3006;SDS011;1513;47.650;10.720;2023-07-13T06:23:43;4.37;;;3.50;;
3006;SDS011;1513;47.650;10.720;2023-07-13T06:26:12;8.50;;;3.80;;
3006;SDS011;1513;47.650;10.720;2023-07-13T06:28:39;7.07;;;3.83;;
3006;SDS011;1513;47.650;10.720;2023-07-13T06:31:06;8.77;;;3.73;;
3006;SDS011;1513;47.650;10.720;2023-07-13T06:33:33;4.10;;;3.50;;
3006;SDS011;1513;47.650;10.720;2023-07-13T06:36:01;8.43;;;4.27;;
3006;SDS011;1513;47.650;10.720;2023-07-13T06:38:28;3.23;;;2.90;;
3006;SDS011;1513;47.650;10.720;2023-07-13T06:40:54;5.70;;;3.80;;
3006;SDS011;1513;47.650;10.720;2023-07-13T06:43:20;5.60;;;4.00;;
3006;SDS011;1513;47.650;10.720;2023-07-13T06:45:47;4.50;;;3.20;;
3006;SDS011;1513;47.650;10.720;2023-07-13T06:48:15;4.63;;;3.30;;
3006;SDS011;1513;47.650;10.720;2023-07-13T06:50:42;8.43;;;3.60;;
3006;SDS011;1513;47.650;10.720;2023-07-13T06:53:12;4.50;;;4.00;;
3006;SDS011;1513;47.650;10.720;2023-07-13T06:55:39;6.80;;;4.47;;
3006;SDS011;1513;47.650;10.720;2023-07-13T06:58:06;7.30;;;5.07;;
3006;SDS011;1513;47.650;10.720;2023-07-13T07:00:32;7.70;;;5.17;;
3006;SDS011;1513;47.650;10.720;2023-07-13T07:02:58;8.13;;;5.40;;
3006;SDS011;1513;47.650;10.720;2023-07-13T07:05:24;6.10;;;4.90;;
3006;SDS011;1513;47.650;10.720;2023-07-13T07:07:52;4.23;;;3.70;;
3006;SDS011;1513;47.650;10.720;2023-07-13T07:10:19;7.00;;;3.77;;
3006;SDS011;1513;47.650;10.720;2023-07-13T07:12:46;5.43;;;4.63;;
3006;SDS011;1513;47.650;10.720;2023-07-13T07:15:12;5.13;;;4.30;;
3006;SDS011;1513;47.650;10.720;2023-07-13T07:17:39;7.47;;;4.00;;
3006;SDS011;1513;47.650;10.720;2023-07-13T07:20:05;6.80;;;5.37;;
3006;SDS011;1513;47.650;10.720;2023-07-13T07:22:32;6.00;;;4.90;;
3006;SDS011;1513;47.650;10.720;2023-07-13T07:24:59;7.00;;;4.90;;
3006;SDS011;1513;47.650;10.720;2023-07-13T07:27:25;4.50;;;3.63;;
3006;SDS011;1513;47.650;10.720;2023-07-13T07:29:52;5.27;;;4.13;;
3006;SDS011;1513;47.650;10.720;2023-07-13T07:32:19;4.17;;;3.73;;
3006;SDS011;1513;47.650;10.720;2023-07-13T07:34:45;7.10;;;4.67;;
3006;SDS011;1513;47.650;10.720;2023-07-13T07:37:13;7.80;;;4.27;;
3006;SDS011;1513;47.650;10.720;2023-07-13T07:39:40;4.97;;;3.80;;
3006;SDS011;1513;47.650;10.720;2023-07-13T07:42:08;6.47;;;3.73;;
3006;SDS011;1513;47.650;10.720;2023-07-13T07:44:34;6.53;;;3.17;;
3006;SDS011;1513;47.650;10.720;2023-07-13T07:47:08;7.17;;;3.37;;
3006;SDS011;1513;47.650;10.720;2023-07-13T07:49:35;8.73;;;4.13;;
3006;SDS011;1513;47.650;10.720;2023-07-13T07:52:04;6.50;;;3.73;;
3006;SDS011;1513;47.650;10.720;2023-07-13T07:54:31;7.00;;;4.00;;
3006;SDS011;1513;47.650;10.720;2023-07-13T07:56:57;6.00;;;3.10;;
3006;SDS011;1513;47.650;10.720;2023-07-13T07:59:24;5.60;;;3.83;;
3006;SDS011;1513;47.650;10.720;2023-07-13T08:01:51;5.57;;;4.00;;
3006;SDS011;1513;47.650;10.720;2023-07-13T08:04:17;5.17;;;3.47;;
3006;SDS011;1513;47.650;10.720;2023-07-13T08:06:52;7.63;;;4.03;;
3006;SDS011;1513;47.650;10.720;2023-07-13T08:09:25;5.77;;;3.40;;
3006;SDS011;1513;47.650;10.720;2023-07-13T08:11:52;4.20;;;3.80;;
3006;SDS011;1513;47.650;10.720;2023-07-13T08:14:19;5.10;;;3.10;;
3006;SDS011;1513;47.650;10.720;2023-07-13T08:16:46;5.40;;;3.43;;
3006;SDS011;1513;47.650;10.720;2023-07-13T08:19:12;6.00;;;3.07;;
3006;SDS011;1513;47.650;10.720;2023-07-13T08:21:38;8.57;;;3.27;;
3006;SDS011;1513;47.650;10.720;2023-07-13T08:24:06;7.20;;;3.10;;
3006;SDS011;1513;47.650;10.720;2023-07-13T08:26:32;6.47;;;3.90;;
3006;SDS011;1513;47.650;10.720;2023-07-13T08:28:59;5.23;;;3.27;;
3006;SDS011;1513;47.650;10.720;2023-07-13T08:31:26;6.20;;;3.30;;
3006;SDS011;1513;47.650;10.720;2023-07-13T08:33:52;7.93;;;3.50;;
3006;SDS011;1513;47.650;10.720;2023-07-13T08:36:18;8.60;;;3.67;;
3006;SDS011;1513;47.650;10.720;2023-07-13T08:38:44;3.87;;;3.30;;
3006;SDS011;1513;47.650;10.720;2023-07-13T08:41:15;9.37;;;3.20;;
3006;SDS011;1513;47.650;10.720;2023-07-13T08:43:43;6.27;;;4.10;;
3006;SDS011;1513;47.650;10.720;2023-07-13T08:48:56;5.50;;;3.20;;
3006;SDS011;1513;47.650;10.720;2023-07-13T08:51:40;5.00;;;3.53;;
3006;SDS011;1513;47.650;10.720;2023-07-13T08:56:50;5.20;;;3.43;;
3006;SDS011;1513;47.650;10.720;2023-07-13T08:59:20;4.80;;;3.00;;
3006;SDS011;1513;47.650;10.720;2023-07-13T09:04:33;4.20;;;3.47;;
3006;SDS011;1513;47.650;10.720;2023-07-13T09:09:44;7.80;;;3.70;;
3006;SDS011;1513;47.650;10.720;2023-07-13T09:12:27;6.40;;;3.40;;
3006;SDS011;1513;47.650;10.720;2023-07-13T09:15:01;4.90;;;3.80;;
3006;SDS011;1513;47.650;10.720;2023-07-13T09:17:35;6.70;;;4.13;;
3006;SDS011;1513;47.650;10.720;2023-07-13T09:22:56;7.67;;;4.27;;
3006;SDS011;1513;47.650;10.720;2023-07-13T09:25:27;9.60;;;3.43;;
3006;SDS011;1513;47.650;10.720;2023-07-13T09:28:00;5.97;;;3.20;;
3006;SDS011;1513;47.650;10.720;2023-07-13T09:30:42;5.60;;;3.70;;
3006;SDS011;1513;47.650;10.720;2023-07-13T09:33:09;5.67;;;3.60;;
3006;SDS011;1513;47.650;10.720;2023-07-13T09:35:36;4.07;;;3.73;;
3006;SDS011;1513;47.650;10.720;2023-07-13T09:38:15;4.83;;;3.70;;
3006;SDS011;1513;47.650;10.720;2023-07-13T09:43:24;4.63;;;3.93;;
3006;SDS011;1513;47.650;10.720;2023-07-13T09:45:52;4.70;;;3.80;;
3006;SDS011;1513;47.650;10.720;2023-07-13T09:48:18;7.90;;;3.77;;
3006;SDS011;1513;47.650;10.720;2023-07-13T09:50:45;4.07;;;3.67;;
3006;SDS011;1513;47.650;10.720;2023-07-13T09:53:15;9.30;;;4.90;;
3006;SDS011;1513;47.650;10.720;2023-07-13T09:55:43;4.40;;;3.90;;
3006;SDS011;1513;47.650;10.720;2023-07-13T09:58:15;4.83;;;4.00;;
3006;SDS011;1513;47.650;10.720;2023-07-13T10:01:02;4.77;;;4.00;;
3006;SDS011;1513;47.650;10.720;2023-07-13T10:03:31;5.70;;;4.17;;
3006;SDS011;1513;47.650;10.720;2023-07-13T10:06:36;3.97;;;3.57;;
3006;SDS011;1513;47.650;10.720;2023-07-13T10:08:56;5.07;;;3.77;;
3006;SDS011;1513;47.650;10.720;2023-07-13T10:11:27;7.00;;;4.27;;
3006;SDS011;1513;47.650;10.720;2023-07-13T10:14:00;5.80;;;4.37;;
3006;SDS011;1513;47.650;10.720;2023-07-13T10:16:30;5.40;;;4.50;;
3006;SDS011;1513;47.650;10.720;2023-07-13T10:19:06;5.33;;;4.83;;
3006;SDS011;1513;47.650;10.720;2023-07-13T10:21:41;4.80;;;4.30;;
3006;SDS011;1513;47.650;10.720;2023-07-13T10:24:23;5.87;;;4.50;;
3006;SDS011;1513;47.650;10.720;2023-07-13T10:27:00;5.57;;;4.50;;
3006;SDS011;1513;47.650;10.720;2023-07-13T10:29:29;6.07;;;4.80;;
3006;SDS011;1513;47.650;10.720;2023-07-13T10:32:03;4.47;;;4.00;;
3006;SDS011;1513;47.650;10.720;2023-07-13T10:34:35;4.70;;;4.30;;
3006;SDS011;1513;47.650;10.720;2023-07-13T10:37:01;5.40;;;4.50;;
3006;SDS011;1513;47.650;10.720;2023-07-13T10:39:28;5.63;;;4.27;;
3006;SDS011;1513;47.650;10.720;2023-07-13T10:41:57;8.50;;;4.90;;
3006;SDS011;1513;47.650;10.720;2023-07-13T10:44:27;7.77;;;4.60;;
3006;SDS011;1513;47.650;10.720;2023-07-13T10:46:56;5.07;;;4.10;;
3006;SDS011;1513;47.650;10.720;2023-07-13T10:49:27;5.70;;;4.57;;
3006;SDS011;1513;47.650;10.720;2023-07-13T10:51:54;5.50;;;5.00;;
3006;SDS011;1513;47.650;10.720;2023-07-13T10:54:22;6.20;;;4.80;;
3006;SDS011;1513;47.650;10.720;2023-07-13T10:57:06;8.03;;;5.37;;
3006;SDS011;1513;47.650;10.720;2023-07-13T11:00:10;6.20;;;4.60;;
3006;SDS011;1513;47.650;10.720;2023-07-13T11:02:39;5.50;;;4.63;;
3006;SDS011;1513;47.650;10.720;2023-07-13T11:05:25;5.43;;;4.70;;
3006;SDS011;1513;47.650;10.720;2023-07-13T11:08:12;6.77;;;4.37;;
3006;SDS011;1513;47.650;10.720;2023-07-13T11:13:58;11.80;;;4.60;;
3006;SDS011;1513;47.650;10.720;2023-07-13T11:21:17;5.50;;;4.10;;
3006;SDS011;1513;47.650;10.720;2023-07-13T11:23:51;5.17;;;4.33;;
3006;SDS011;1513;47.650;10.720;2023-07-13T11:26:52;5.27;;;4.63;;
3006;SDS011;1513;47.650;10.720;2023-07-13T11:31:43;4.83;;;4.00;;
3006;SDS011;1513;47.650;10.720;2023-07-13T11:34:18;5.10;;;4.30;;
3006;SDS011;1513;47.650;10.720;2023-07-13T11:36:59;5.30;;;4.80;;
3006;SDS011;1513;47.650;10.720;2023-07-13T11:39:28;5.20;;;4.70;;
3006;SDS011;1513;47.650;10.720;2023-07-13T11:41:56;5.13;;;4.53;;
3006;SDS011;1513;47.650;10.720;2023-07-13T11:44:25;5.53;;;5.03;;
3006;SDS011;1513;47.650;10.720;2023-07-13T11:46:54;5.73;;;5.20;;
3006;SDS011;1513;47.650;10.720;2023-07-13T11:49:26;5.93;;;4.80;;
3006;SDS011;1513;47.650;10.720;2023-07-13T11:51:54;5.40;;;4.90;;
3006;SDS011;1513;47.650;10.720;2023-07-13T11:54:23;5.03;;;4.57;;
3006;SDS011;1513;47.650;10.720;2023-07-13T11:56:51;4.60;;;4.10;;
3006;SDS011;1513;47.650;10.720;2023-07-13T11:59:19;7.00;;;3.80;;
3006;SDS011;1513;47.650;10.720;2023-07-13T12:01:48;4.63;;;3.80;;
3006;SDS011;1513;47.650;10.720;2023-07-13T12:04:22;6.87;;;4.40;;
3006;SDS011;1513;47.650;10.720;2023-07-13T12:07:24;6.00;;;4.10;;
3006;SDS011;1513;47.650;10.720;2023-07-13T12:09:43;6.90;;;4.27;;
3006;SDS011;1513;47.650;10.720;2023-07-13T12:12:14;4.70;;;4.10;;
3006;SDS011;1513;47.650;10.720;2023-07-13T12:14:42;7.27;;;4.63;;
3006;SDS011;1513;47.650;10.720;2023-07-13T12:17:19;4.73;;;4.20;;
3006;SDS011;1513;47.650;10.720;2023-07-13T12:19:51;4.47;;;4.07;;
3006;SDS011;1513;47.650;10.720;2023-07-13T12:22:19;7.90;;;4.20;;
3006;SDS011;1513;47.650;10.720;2023-07-13T12:24:46;4.47;;;3.90;;
3006;SDS011;1513;47.650;10.720;2023-07-13T12:27:18;3.93;;;3.40;;
3006;SDS011;1513;47.650;10.720;2023-07-13T12:29:50;5.63;;;3.80;;
3006;SDS011;1513;47.650;10.720;2023-07-13T12:32:19;5.47;;;3.80;;
3006;SDS011;1513;47.650;10.720;2023-07-13T12:34:55;3.60;;;3.30;;
3006;SDS011;1513;47.650;10.720;2023-07-13T12:37:45;7.23;;;3.50;;
3006;SDS011;1513;47.650;10.720;2023-07-13T12:40:15;3.83;;;3.40;;
3006;SDS011;1513;47.650;10.720;2023-07-13T12:42:45;5.77;;;3.00;;
3006;SDS011;1513;47.650;10.720;2023-07-13T12:47:49;6.57;;;3.47;;
3006;SDS011;1513;47.650;10.720;2023-07-13T12:50:19;5.13;;;2.87;;
3006;SDS011;1513;47.650;10.720;2023-07-13T12:52:51;3.50;;;2.83;;
3006;SDS011;1513;47.650;10.720;2023-07-13T12:55:20;5.13;;;4.10;;
3006;SDS011;1513;47.650;10.720;2023-07-13T13:02:54;4.57;;;3.73;;
3006;SDS011;1513;47.650;10.720;2023-07-13T13:05:21;5.30;;;4.20;;
3006;SDS011;1513;47.650;10.720;2023-07-13T13:07:50;4.23;;;3.83;;
3006;SDS011;1513;47.650;10.720;2023-07-13T13:10:17;5.33;;;3.73;;
3006;SDS011;1513;47.650;10.720;2023-07-13T13:12:43;6.30;;;3.63;;
3006;SDS011;1513;47.650;10.720;2023-07-13T13:15:10;4.10;;;3.67;;
3006;SDS011;1513;47.650;10.720;2023-07-13T13:17:37;6.90;;;4.53;;
3006;SDS011;1513;47.650;10.720;2023-07-13T13:20:25;5.70;;;4.60;;
3006;SDS011;1513;47.650;10.720;2023-07-13T13:22:51;4.37;;;3.97;;
3006;SDS011;1513;47.650;10.720;2023-07-13T13:25:17;4.37;;;3.97;;
3006;SDS011;1513;47.650;10.720;2023-07-13T13:27:45;4.90;;;3.77;;
3006;SDS011;1513;47.650;10.720;2023-07-13T13:30:12;10.63;;;5.27;;
3006;SDS011;1513;47.650;10.720;2023-07-13T13:32:40;5.40;;;4.40;;
3006;SDS011;1513;47.650;10.720;2023-07-13T13:35:14;7.43;;;4.60;;
3006;SDS011;1513;47.650;10.720;2023-07-13T13:37:44;4.57;;;3.97;;
3006;SDS011;1513;47.650;10.720;2023-07-13T13:42:43;5.10;;;4.60;;
3006;SDS011;1513;47.650;10.720;2023-07-13T13:45:09;4.50;;;4.10;;
3006;SDS011;1513;47.650;10.720;2023-07-13T13:47:37;5.70;;;4.43;;
3006;SDS011;1513;47.650;10.720;2023-07-13T13:50:12;4.57;;;4.17;;
3006;SDS011;1513;47.650;10.720;2023-07-13T13:52:43;5.33;;;4.83;;
3006;SDS011;1513;47.650;10.720;2023-07-13T13:55:13;4.70;;;4.30;;
3006;SDS011;1513;47.650;10.720;2023-07-13T13:57:41;5.40;;;4.37;;
3006;SDS011;1513;47.650;10.720;2023-07-13T14:00:11;4.90;;;4.23;;
3006;SDS011;1513;47.650;10.720;2023-07-13T14:02:44;5.87;;;4.57;;
3006;SDS011;1513;47.650;10.720;2023-07-13T14:05:17;4.03;;;3.60;;
3006;SDS011;1513;47.650;10.720;2023-07-13T14:07:48;7.43;;;3.57;;
3006;SDS011;1513;47.650;10.720;2023-07-13T14:10:16;6.93;;;4.17;;
3006;SDS011;1513;47.650;10.720;2023-07-13T14:12:44;4.77;;;3.93;;
3006;SDS011;1513;47.650;10.720;2023-07-13T14:15:21;5.90;;;4.53;;
3006;SDS011;1513;47.650;10.720;2023-07-13T14:17:52;4.87;;;4.47;;
3006;SDS011;1513;47.650;10.720;2023-07-13T14:20:19;8.30;;;4.10;;
3006;SDS011;1513;47.650;10.720;2023-07-13T14:22:49;3.83;;;3.20;;
3006;SDS011;1513;47.650;10.720;2023-07-13T14:25:17;6.43;;;4.47;;
3006;SDS011;1513;47.650;10.720;2023-07-13T14:27:44;4.97;;;4.50;;
3006;SDS011;1513;47.650;10.720;2023-07-13T14:30:12;5.03;;;4.20;;
3006;SDS011;1513;47.650;10.720;2023-07-13T14:32:40;4.47;;;3.90;;
3006;SDS011;1513;47.650;10.720;2023-07-13T14:35:07;4.70;;;4.30;;
3006;SDS011;1513;47.650;10.720;2023-07-13T14:37:41;4.57;;;4.17;;
3006;SDS011;1513;47.650;10.720;2023-07-13T14:40:24;4.63;;;4.10;;
3006;SDS011;1513;47.650;10.720;2023-07-13T14:42:54;4.53;;;3.33;;
3006;SDS011;1513;47.650;10.720;2023-07-13T14:45:21;4.57;;;4.10;;
3006;SDS011;1513;47.650;10.720;2023-07-13T14:47:47;4.80;;;3.40;;
3006;SDS011;1513;47.650;10.720;2023-07-13T14:50:15;3.83;;;3.50;;
3006;SDS011;1513;47.650;10.720;2023-07-13T14:52:45;5.47;;;4.10;;
3006;SDS011;1513;47.650;10.720;2023-07-13T14:55:13;6.17;;;3.97;;
3006;SDS011;1513;47.650;10.720;2023-07-13T14:57:41;5.60;;;4.00;;
3006;SDS011;1513;47.650;10.720;2023-07-13T15:00:17;4.30;;;3.90;;
3006;SDS011;1513;47.650;10.720;2023-07-13T15:02:46;7.40;;;4.67;;
3006;SDS011;1513;47.650;10.720;2023-07-13T15:05:15;6.10;;;4.00;;
3006;SDS011;1513;47.650;10.720;2023-07-13T15:07:43;5.43;;;4.30;;
3006;SDS011;1513;47.650;10.720;2023-07-13T15:10:17;8.83;;;4.20;;
3006;SDS011;1513;47.650;10.720;2023-07-13T15:12:46;6.17;;;4.50;;
3006;SDS011;1513;47.650;10.720;2023-07-13T15:15:13;8.40;;;4.17;;
3006;SDS011;1513;47.650;10.720;2023-07-13T15:17:40;9.53;;;4.23;;
3006;SDS011;1513;47.650;10.720;2023-07-13T15:22:43;4.27;;;3.87;;
3006;SDS011;1513;47.650;10.720;2023-07-13T15:25:20;5.17;;;3.93;;
3006;SDS011;1513;47.650;10.720;2023-07-13T15:27:49;4.23;;;3.83;;
3006;SDS011;1513;47.650;10.720;2023-07-13T15:30:16;5.70;;;3.97;;
3006;SDS011;1513;47.650;10.720;2023-07-13T15:32:43;7.70;;;4.30;;
3006;SDS011;1513;47.650;10.720;2023-07-13T15:35:14;5.13;;;3.97;;
3006;SDS011;1513;47.650;10.720;2023-07-13T15:37:42;6.53;;;3.87;;
3006;SDS011;1513;47.650;10.720;2023-07-13T15:40:09;4.53;;;4.13;;
3006;SDS011;1513;47.650;10.720;2023-07-13T15:42:36;6.57;;;4.00;;
3006;SDS011;1513;47.650;10.720;2023-07-13T15:45:04;8.97;;;4.30;;
3006;SDS011;1513;47.650;10.720;2023-07-13T15:47:35;4.43;;;4.03;;
3006;SDS011;1513;47.650;10.720;2023-07-13T15:50:01;5.97;;;4.13;;
3006;SDS011;1513;47.650;10.720;2023-07-13T15:52:28;4.43;;;3.70;;
3006;SDS011;1513;47.650;10.720;2023-07-13T15:54:55;3.97;;;3.60;;
3006;SDS011;1513;47.650;10.720;2023-07-13T15:57:21;8.37;;;4.43;;
3006;SDS011;1513;47.650;10.720;2023-07-13T15:59:47;5.27;;;4.20;;